createdAt,value
2022-11-29T00:00:49.656Z,12.40
2022-11-29T00:03:16.454Z,11.80
2022-11-29T00:05:43.188Z,11.70
2022-11-29T00:08:09.854Z,13.70
2022-11-29T00:10:37.580Z,15.00
2022-11-29T00:13:04.516Z,13.90
2022-11-29T00:15:31.259Z,12.50
2022-11-29T00:17:57.920Z,13.90
2022-11-29T00:20:24.626Z,13.10
2022-11-29T00:22:51.228Z,13.50
2022-11-29T00:25:17.989Z,14.50
2022-11-29T00:27:44.691Z,13.00
2022-11-29T00:30:12.129Z,13.30
2022-11-29T00:32:38.754Z,12.50
2022-11-29T00:35:09.683Z,14.70
2022-11-29T00:37:36.667Z,14.90
2022-11-29T00:40:04.211Z,14.60
2022-11-29T00:42:30.964Z,15.00
2022-11-29T00:44:57.584Z,15.20
2022-11-29T00:47:24.238Z,13.20
2022-11-29T00:49:50.895Z,13.40
2022-11-29T00:52:17.585Z,13.20
2022-11-29T00:54:44.608Z,13.90
2022-11-29T00:57:11.403Z,14.00
2022-11-29T00:59:38.028Z,14.40
2022-11-29T01:02:04.695Z,14.10
2022-11-29T01:04:31.426Z,14.20
2022-11-29T01:06:58.037Z,12.90
2022-11-29T01:09:24.708Z,14.60
2022-11-29T01:11:51.359Z,13.40
2022-11-29T01:14:18.067Z,13.50
2022-11-29T01:16:44.746Z,14.20
2022-11-29T01:19:11.667Z,14.70
2022-11-29T01:21:38.269Z,13.50
2022-11-29T01:24:05.202Z,14.60
2022-11-29T01:26:31.884Z,15.40
2022-11-29T01:28:59.112Z,14.40
2022-11-29T01:31:31.138Z,13.80
2022-11-29T01:33:59.635Z,14.30
2022-11-29T01:36:26.769Z,13.50
2022-11-29T01:38:53.445Z,15.40
2022-11-29T01:41:31.060Z,14.70
2022-11-29T01:44:04.708Z,13.50
2022-11-29T01:46:35.544Z,15.10
2022-11-29T01:49:24.547Z,15.30
2022-11-29T01:51:53.410Z,15.40
2022-11-29T01:54:20.127Z,14.70
2022-11-29T01:56:47.411Z,14.70
2022-11-29T01:59:16.055Z,13.80
2022-11-29T02:01:42.730Z,13.00
2022-11-29T02:04:09.414Z,12.10
2022-11-29T02:06:36.190Z,13.50
2022-11-29T02:09:03.143Z,13.40
2022-11-29T02:11:42.312Z,12.60
2022-11-29T02:14:21.107Z,14.20
2022-11-29T02:16:56.694Z,11.40
2022-11-29T02:19:51.371Z,12.40
2022-11-29T02:25:14.796Z,14.30
2022-11-29T02:28:02.592Z,15.00
2022-11-29T02:30:38.788Z,13.30
2022-11-29T02:33:23.397Z,14.20
2022-11-29T02:35:56.258Z,12.10
2022-11-29T02:38:35.229Z,14.80
2022-11-29T02:41:30.084Z,14.10
2022-11-29T02:44:12.420Z,10.80
2022-11-29T02:46:56.748Z,11.50
2022-11-29T02:49:32.654Z,11.30
2022-11-29T02:52:00.685Z,12.00
2022-11-29T02:54:38.542Z,10.40
2022-11-29T02:57:20.642Z,11.60
2022-11-29T02:59:59.502Z,10.80
2022-11-29T03:02:41.023Z,11.20
2022-11-29T03:05:32.752Z,12.50
2022-11-29T03:07:59.453Z,11.90
2022-11-29T03:10:54.023Z,10.10
2022-11-29T03:13:27.700Z,9.50
2022-11-29T03:16:09.894Z,9.60
2022-11-29T03:19:31.164Z,9.60
2022-11-29T03:22:34.399Z,8.50
2022-11-29T06:55:03.087Z,17.50
2022-11-29T06:57:48.815Z,17.10
2022-11-29T07:00:27.125Z,16.90
2022-11-29T07:03:13.030Z,17.90
2022-11-29T07:05:40.827Z,18.40
2022-11-29T07:08:16.234Z,17.70
2022-11-29T07:10:43.397Z,16.00
2022-11-29T07:13:12.628Z,16.50
2022-11-29T07:15:50.302Z,14.90
2022-11-29T07:18:44.634Z,14.80
2022-11-29T07:21:17.707Z,17.10
2022-11-29T07:24:05.609Z,14.90
2022-11-29T07:26:46.771Z,15.90
2022-11-29T07:29:20.626Z,13.10
2022-11-29T07:34:29.279Z,14.00
2022-11-29T07:37:03.815Z,13.00
2022-11-29T07:40:09.115Z,15.60
2022-11-29T07:42:46.444Z,17.40
2022-11-29T07:45:29.115Z,15.80
2022-11-29T07:47:55.842Z,14.10
2022-11-29T07:50:22.548Z,15.60
2022-11-29T07:52:49.177Z,14.20
2022-11-29T07:55:21.024Z,14.70
2022-11-29T07:57:48.869Z,18.40
2022-11-29T08:00:16.139Z,15.80
2022-11-29T08:02:42.844Z,14.70
2022-11-29T08:05:10.016Z,14.70
2022-11-29T08:07:37.479Z,14.00
2022-11-29T08:10:05.281Z,14.50
2022-11-29T08:12:31.989Z,16.90
2022-11-29T08:14:58.696Z,16.10
2022-11-29T08:17:26.002Z,16.40
2022-11-29T08:19:52.912Z,14.10
2022-11-29T08:22:19.554Z,14.40
2022-11-29T08:24:46.474Z,16.10
2022-11-29T08:27:13.366Z,17.30
2022-11-29T08:29:40.168Z,17.40
2022-11-29T08:32:06.983Z,15.10
2022-11-29T08:34:33.686Z,16.10
2022-11-29T08:37:00.322Z,16.50
2022-11-29T08:39:26.991Z,17.40
2022-11-29T08:41:53.652Z,16.90
2022-11-29T08:44:20.298Z,16.80
2022-11-29T08:47:05.772Z,15.90
2022-11-29T08:49:32.468Z,18.20
2022-11-29T08:52:17.817Z,17.10
2022-11-29T08:54:44.817Z,20.90
2022-11-29T08:57:41.497Z,18.80
2022-11-29T08:59:58.401Z,18.10
2022-11-29T09:02:25.078Z,18.20
2022-11-29T09:04:51.783Z,18.40
2022-11-29T09:07:18.464Z,16.50
2022-11-29T09:09:45.148Z,16.90
2022-11-29T09:12:11.804Z,16.70
2022-11-29T09:14:38.466Z,17.30
2022-11-29T09:17:05.130Z,16.60
2022-11-29T09:19:31.905Z,20.60
2022-11-29T09:21:58.552Z,18.50
2022-11-29T09:24:25.362Z,18.80
2022-11-29T09:26:51.993Z,17.40
2022-11-29T09:29:18.796Z,18.30
2022-11-29T09:31:47.894Z,18.60
2022-11-29T09:34:15.724Z,19.30
2022-11-29T09:41:19.810Z,19.80
2022-11-29T09:44:08.057Z,18.70
2022-11-29T09:46:40.994Z,19.70
2022-11-29T09:49:30.676Z,17.50
2022-11-29T09:52:12.685Z,16.00
2022-11-29T09:55:00.710Z,18.10
2022-11-29T09:57:28.715Z,17.50
2022-11-29T09:59:58.144Z,16.00
2022-11-29T10:02:45.351Z,15.00
2022-11-29T10:05:13.770Z,16.80
2022-11-29T10:07:46.447Z,18.90
2022-11-29T10:10:43.204Z,16.70
2022-11-29T10:13:20.431Z,19.50
2022-11-29T10:15:48.583Z,20.90
2022-11-29T10:18:28.923Z,21.40
2022-11-29T10:20:58.514Z,22.80
2022-11-29T10:23:30.883Z,17.90
2022-11-29T10:25:57.688Z,17.50
2022-11-29T10:28:31.123Z,20.50
2022-11-29T10:31:19.629Z,16.40
2022-11-29T10:33:46.270Z,18.00
2022-11-29T10:36:19.136Z,17.70
2022-11-29T10:38:45.802Z,16.70
2022-11-29T10:41:15.503Z,17.30
2022-11-29T10:43:43.097Z,16.40
2022-11-29T10:46:14.150Z,16.50
2022-11-29T10:48:40.775Z,17.00
2022-11-29T15:05:14.724Z,20.80
2022-11-29T15:07:44.834Z,20.20
2022-11-29T15:10:16.637Z,20.70
2022-11-29T15:12:43.335Z,20.90
2022-11-29T15:15:21.499Z,17.40
2022-11-29T15:18:02.230Z,18.90
2022-11-29T15:20:38.416Z,17.70
2022-11-29T15:23:07.732Z,19.00
2022-11-29T15:25:34.410Z,18.70
2022-11-29T15:28:05.849Z,18.10
2022-11-29T15:30:36.593Z,18.00
2022-11-29T15:33:04.701Z,15.80
2022-11-29T15:35:32.204Z,15.70
2022-11-29T15:37:58.907Z,14.90
2022-11-29T15:40:31.523Z,14.10
2022-11-29T15:43:13.224Z,14.30
2022-11-29T15:45:40.177Z,12.70
2022-11-29T15:48:33.172Z,12.20
2022-11-29T15:51:15.213Z,13.70
2022-11-29T15:54:12.264Z,11.90
2022-11-29T15:56:45.605Z,12.30
2022-11-29T15:59:36.151Z,12.90
2022-11-29T16:02:08.344Z,13.00
2022-11-29T16:04:39.909Z,14.40
2022-11-29T16:09:38.924Z,13.30
2022-11-29T16:12:09.428Z,13.70
2022-11-29T16:14:36.207Z,13.70
2022-11-29T16:17:03.911Z,15.10
2022-11-29T16:19:31.753Z,13.40
2022-11-29T16:22:02.867Z,15.70
2022-11-29T16:24:29.570Z,14.80
2022-11-29T16:26:56.198Z,15.40
2022-11-29T16:29:30.941Z,13.80
2022-11-29T16:31:57.743Z,16.00
2022-11-29T16:34:33.908Z,13.40
2022-11-29T16:37:02.399Z,14.00
2022-11-29T16:39:29.169Z,12.90
2022-11-29T16:42:08.404Z,13.20
2022-11-29T16:44:41.401Z,14.10
2022-11-29T16:47:18.091Z,13.30
2022-11-29T16:49:44.743Z,16.00
2022-11-29T16:52:23.862Z,18.40
2022-11-29T16:54:50.976Z,12.90
2022-11-29T16:57:18.736Z,12.70
2022-11-29T16:59:46.576Z,12.00
2022-11-29T17:02:13.988Z,13.00
2022-11-29T17:04:40.879Z,11.20
2022-11-29T17:07:09.358Z,12.90
2022-11-29T17:09:36.264Z,13.90
2022-11-29T17:12:02.977Z,10.90
2022-11-29T17:14:29.906Z,12.70
2022-11-29T17:16:56.696Z,13.40
2022-11-29T17:19:23.945Z,12.40
2022-11-29T17:21:51.559Z,13.40
2022-11-29T17:24:19.386Z,11.30
2022-11-29T17:26:46.159Z,11.20
2022-11-29T17:29:13.834Z,10.50
2022-11-29T17:31:41.432Z,12.20
2022-11-29T17:34:08.226Z,11.30
2022-11-29T17:36:34.841Z,11.30
2022-11-29T17:39:02.212Z,10.90
2022-11-29T17:41:31.087Z,10.50
2022-11-29T17:43:57.979Z,10.50
2022-11-29T17:46:28.929Z,11.10
2022-11-29T17:48:55.897Z,12.10
2022-11-29T17:51:50.730Z,11.10
2022-11-29T17:54:10.582Z,12.40
2022-11-29T17:56:37.214Z,11.70
2022-11-29T17:59:04.084Z,11.50
2022-11-29T18:01:32.554Z,10.40
2022-11-29T18:04:00.421Z,10.30
2022-11-29T18:06:34.392Z,10.30
2022-11-29T18:11:29.896Z,9.10
2022-11-29T18:13:56.915Z,11.30
2022-11-29T18:16:28.746Z,12.70
2022-11-29T18:18:56.331Z,10.70
2022-11-29T18:21:23.201Z,11.10
2022-11-29T18:23:50.027Z,11.60
2022-11-29T18:26:18.818Z,12.10
2022-11-29T18:28:45.634Z,9.40
2022-11-29T18:31:16.180Z,10.80
2022-11-29T18:33:43.736Z,10.20
2022-11-29T18:36:21.308Z,10.30
2022-11-29T18:38:48.245Z,11.00
2022-11-29T18:41:19.492Z,9.70
